Sfax, Tunisia
Current Conditions -  °F | °C
As of 12:00 AM on Wednesday 28 Jan 2015 (Local Time) from DTTX Reporting Station
Scattered Clouds Scattered Clouds  
Wind Chill: 50°   Ceiling: Unl
Heat Index: 50°   Visibility: 6mi
Dew Point: 37°   Wind: 6mph
Humidity: 62%   Direction: 250°WSW
Pressure: 30.06"   Gusts: NA
Location:  34.75°N, 10.76°E
Report Text: DTTX 272300Z 25005KT 9999 FEW020 SCT030 10/03 Q1018 NOSIG
Loading
Personal Weather Stations






























Interactive Weather Map New forecast layout! Learn more

10-Day Weather Forecast

Advertisements
Track Severe Weather on mobile